createdAt,value
2018-07-07T00:00:01.573Z,68.10
2018-07-07T00:02:29.404Z,68.10
2018-07-07T00:04:57.164Z,68.30
2018-07-07T00:07:25.129Z,68.70
2018-07-07T00:09:52.854Z,69.00
2018-07-07T00:12:20.788Z,69.40
2018-07-07T00:14:48.552Z,69.60
2018-07-07T00:17:16.601Z,69.40
2018-07-07T00:19:44.305Z,69.30
2018-07-07T00:22:12.078Z,69.20
2018-07-07T00:24:39.978Z,69.20
2018-07-07T00:27:07.847Z,69.60
2018-07-07T00:29:35.718Z,69.90
2018-07-07T00:34:31.246Z,70.30
2018-07-07T00:39:26.559Z,70.40
2018-07-07T00:41:54.320Z,70.70
2018-07-07T00:44:22.034Z,70.70
2018-07-07T00:46:49.753Z,70.70
2018-07-07T00:49:17.481Z,70.50
2018-07-07T00:51:45.571Z,70.30
2018-07-07T00:59:09.098Z,70.60
2018-07-07T01:01:36.882Z,70.90
2018-07-07T01:04:04.753Z,71.20
2018-07-07T01:06:33.588Z,71.20
2018-07-07T01:09:01.398Z,71.10
2018-07-07T01:11:29.436Z,71.10
2018-07-07T01:13:57.537Z,71.30
2018-07-07T01:16:25.496Z,71.20
2018-07-07T01:18:53.448Z,71.40
2018-07-07T01:21:21.173Z,71.60
2018-07-07T01:23:48.875Z,71.70
2018-07-07T01:28:44.390Z,71.90
2018-07-07T01:31:12.114Z,72.10
2018-07-07T01:33:39.856Z,72.50
2018-07-07T01:38:35.181Z,72.90
2018-07-07T01:41:02.982Z,72.90
2018-07-07T01:43:30.732Z,73.20
2018-07-07T01:45:58.422Z,73.50
2018-07-07T01:48:26.205Z,73.50
2018-07-07T01:50:53.927Z,73.60
2018-07-07T01:53:21.683Z,73.60
2018-07-07T01:55:49.366Z,73.70
2018-07-07T02:00:44.693Z,73.60
2018-07-07T02:03:12.385Z,73.80
2018-07-07T02:05:40.237Z,74.20
2018-07-07T02:08:08.095Z,73.50
2018-07-07T02:10:35.825Z,73.40
2018-07-07T02:13:03.823Z,73.50
2018-07-07T02:15:31.485Z,73.70
2018-07-07T02:17:59.169Z,73.70
2018-07-07T02:20:26.903Z,73.80
2018-07-07T02:22:54.681Z,74.00
2018-07-07T02:25:22.445Z,74.00
2018-07-07T02:27:50.205Z,74.20
2018-07-07T02:30:18.059Z,74.20
2018-07-07T02:32:45.802Z,74.80
2018-07-07T02:35:13.573Z,74.20
2018-07-07T02:37:41.332Z,74.00
2018-07-07T02:40:09.311Z,74.10
2018-07-07T02:42:37.078Z,74.20
2018-07-07T02:45:04.782Z,74.50
2018-07-07T02:47:32.480Z,74.60
2018-07-07T02:50:00.375Z,74.40
2018-07-07T02:52:28.062Z,74.50
2018-07-07T02:54:55.756Z,74.60
2018-07-07T02:57:23.484Z,74.60
2018-07-07T02:59:51.219Z,74.80
2018-07-07T03:02:18.923Z,74.80
2018-07-07T03:07:15.800Z,75.60
2018-07-07T03:09:43.908Z,76.00
2018-07-07T03:12:11.692Z,76.00
2018-07-07T03:14:39.422Z,76.00
2018-07-07T03:17:07.162Z,76.20
2018-07-07T03:19:35.137Z,76.00
2018-07-07T03:22:02.902Z,75.80
2018-07-07T03:24:30.780Z,75.90
2018-07-07T03:26:58.536Z,76.10
2018-07-07T03:29:26.288Z,76.00
2018-07-07T03:31:53.968Z,76.10
2018-07-07T03:39:17.032Z,76.00
2018-07-07T03:41:45.000Z,76.20
2018-07-07T03:44:12.822Z,76.10
2018-07-07T03:46:40.489Z,76.30
2018-07-07T03:49:08.192Z,76.50
2018-07-07T03:51:35.908Z,76.70
2018-07-07T03:54:03.662Z,76.60
2018-07-07T03:56:31.592Z,76.40
2018-07-07T03:58:59.379Z,76.30
2018-07-07T04:01:27.186Z,76.00
2018-07-07T04:03:54.977Z,75.80
2018-07-07T04:08:50.335Z,76.10
2018-07-07T04:11:18.041Z,75.90
2018-07-07T04:13:45.716Z,75.90
2018-07-07T04:16:13.681Z,75.90
2018-07-07T04:18:41.451Z,75.60
2018-07-07T04:21:09.129Z,75.60
2018-07-07T04:23:36.812Z,76.40
2018-07-07T04:26:04.595Z,75.40
2018-07-07T04:28:32.300Z,75.80
2018-07-07T04:31:00.266Z,75.00
2018-07-07T04:35:56.218Z,74.80
2018-07-07T04:38:24.023Z,74.60
2018-07-07T04:40:51.935Z,74.50
2018-07-07T04:43:19.647Z,75.60
2018-07-07T04:45:47.381Z,74.70
2018-07-07T04:48:15.946Z,74.50
2018-07-07T04:50:43.794Z,74.00
2018-07-07T04:53:11.474Z,74.00
2018-07-07T04:55:39.366Z,73.90
2018-07-07T04:58:07.356Z,74.00
2018-07-07T05:00:35.113Z,74.00
2018-07-07T05:03:03.421Z,74.20
2018-07-07T05:05:31.603Z,74.40
2018-07-07T05:07:59.489Z,74.60
2018-07-07T05:10:27.251Z,74.70
2018-07-07T05:12:54.966Z,74.70
2018-07-07T05:15:22.744Z,74.50
2018-07-07T05:17:50.563Z,74.30
2018-07-07T05:20:18.615Z,74.10
2018-07-07T05:22:46.349Z,74.00
2018-07-07T05:27:41.727Z,74.20
2018-07-07T05:30:09.431Z,74.50
2018-07-07T05:35:05.382Z,74.20
2018-07-07T05:37:33.239Z,73.90
2018-07-07T05:40:01.094Z,73.70
2018-07-07T05:42:28.819Z,73.70
2018-07-07T05:44:56.587Z,73.60
2018-07-07T05:47:24.261Z,73.10
2018-07-07T05:49:52.195Z,72.80
2018-07-07T05:52:19.983Z,72.60
2018-07-07T05:54:47.715Z,72.20
2018-07-07T05:57:15.479Z,72.00
2018-07-07T05:59:43.347Z,71.40
2018-07-07T06:02:11.087Z,71.10
2018-07-07T06:04:38.819Z,70.70
2018-07-07T06:07:06.578Z,70.40
2018-07-07T06:09:34.336Z,70.10
2018-07-07T06:12:02.120Z,69.90
2018-07-07T06:14:29.947Z,69.40
2018-07-07T06:16:57.963Z,68.90
2018-07-07T06:19:25.647Z,68.40
2018-07-07T06:21:53.364Z,68.20
2018-07-07T06:24:21.068Z,67.60
2018-07-07T06:26:48.798Z,66.90
2018-07-07T06:29:16.704Z,66.30
2018-07-07T06:31:44.397Z,65.80
2018-07-07T06:34:12.190Z,65.40
2018-07-07T06:36:39.918Z,64.90
2018-07-07T06:39:07.700Z,64.20
2018-07-07T06:41:35.420Z,63.80
2018-07-07T06:44:03.546Z,63.70
2018-07-07T06:46:31.262Z,63.70
2018-07-07T06:48:59.418Z,63.30
2018-07-07T06:51:27.156Z,63.40
2018-07-07T06:53:55.494Z,63.40
2018-07-07T06:56:23.162Z,63.20
2018-07-07T06:58:51.106Z,62.70
2018-07-07T07:03:47.763Z,61.60
2018-07-07T07:06:15.569Z,61.10
2018-07-07T07:08:43.320Z,60.50
2018-07-07T07:11:11.224Z,59.60
2018-07-07T07:13:39.005Z,58.80
2018-07-07T07:16:06.693Z,58.20
2018-07-07T07:18:34.388Z,58.10
2018-07-07T07:21:02.123Z,57.60
2018-07-07T07:23:29.938Z,57.30
2018-07-07T07:28:25.373Z,57.50
2018-07-07T07:30:53.148Z,56.30
2018-07-07T07:33:20.862Z,56.20
2018-07-07T07:35:48.581Z,56.00
2018-07-07T07:38:16.330Z,55.80
2018-07-07T07:40:44.073Z,55.30
2018-07-07T07:43:11.827Z,55.30
2018-07-07T07:45:39.538Z,55.20
2018-07-07T07:48:07.264Z,54.90
2018-07-07T07:50:35.278Z,54.70
2018-07-07T07:53:03.134Z,54.60
2018-07-07T07:55:30.880Z,54.40
2018-07-07T07:57:58.865Z,54.20
2018-07-07T08:00:26.812Z,53.70
2018-07-07T08:02:54.505Z,53.20
2018-07-07T08:05:22.202Z,52.80
2018-07-07T08:07:49.898Z,52.50
2018-07-07T08:10:17.718Z,52.30
2018-07-07T08:12:45.400Z,51.80
2018-07-07T08:15:13.136Z,51.30
2018-07-07T08:17:40.820Z,50.70
2018-07-07T08:20:09.376Z,51.10
2018-07-07T08:22:37.269Z,51.30
2018-07-07T08:25:05.196Z,51.20
2018-07-07T08:27:33.042Z,50.90
2018-07-07T08:30:00.696Z,50.90
2018-07-07T08:32:28.366Z,50.30
2018-07-07T08:34:56.099Z,50.40
2018-07-07T08:37:23.797Z,50.00
2018-07-07T08:39:51.699Z,49.90
2018-07-07T08:42:19.418Z,50.00
2018-07-07T08:44:47.099Z,49.80
2018-07-07T08:47:14.789Z,49.40
2018-07-07T08:49:42.480Z,48.70
2018-07-07T08:52:10.161Z,48.00
2018-07-07T08:54:37.879Z,47.50
2018-07-07T08:57:05.567Z,46.90
2018-07-07T08:59:33.244Z,46.80
2018-07-07T09:02:00.938Z,46.40
2018-07-07T09:04:28.651Z,46.00
2018-07-07T09:06:56.357Z,45.60
2018-07-07T09:09:24.024Z,45.60
2018-07-07T09:11:51.850Z,45.50
2018-07-07T09:14:19.671Z,45.70
2018-07-07T09:16:47.271Z,45.40
2018-07-07T09:19:14.914Z,45.10
2018-07-07T09:21:42.642Z,45.10
2018-07-07T09:24:10.371Z,44.90
2018-07-07T09:26:38.153Z,44.70
2018-07-07T09:29:05.860Z,44.40
2018-07-07T09:31:33.577Z,44.00
2018-07-07T09:34:01.237Z,43.40
2018-07-07T09:36:28.955Z,43.50
2018-07-07T09:38:56.649Z,43.10
2018-07-07T09:41:24.337Z,43.20
2018-07-07T09:43:52.083Z,42.80
2018-07-07T09:46:19.772Z,42.10
2018-07-07T09:48:47.429Z,41.70
2018-07-07T09:51:15.136Z,41.60
2018-07-07T09:53:42.867Z,41.80
2018-07-07T09:56:10.551Z,41.80
2018-07-07T09:58:38.396Z,41.40
2018-07-07T10:01:06.109Z,40.80
2018-07-07T10:03:33.757Z,41.30
2018-07-07T10:06:01.424Z,40.60
2018-07-07T10:08:29.202Z,40.90
2018-07-07T10:10:56.890Z,40.30
2018-07-07T10:13:24.553Z,39.60
2018-07-07T10:15:52.236Z,39.50
2018-07-07T10:18:19.906Z,40.00
2018-07-07T10:20:47.857Z,40.20
2018-07-07T10:23:15.484Z,39.50
2018-07-07T10:25:43.180Z,38.90
2018-07-07T10:28:10.840Z,38.50
2018-07-07T10:30:38.500Z,38.60
2018-07-07T10:33:06.316Z,38.00
2018-07-07T10:35:33.997Z,37.90
2018-07-07T10:38:01.711Z,38.10
2018-07-07T10:40:29.382Z,37.20
2018-07-07T10:42:57.071Z,36.80
2018-07-07T10:45:24.735Z,36.80
2018-07-07T10:47:52.504Z,36.80
2018-07-07T10:50:20.173Z,36.90
2018-07-07T10:52:47.893Z,36.50
2018-07-07T10:55:15.556Z,36.80
2018-07-07T10:57:43.221Z,36.20
2018-07-07T11:00:10.886Z,36.20
2018-07-07T11:02:38.712Z,35.80
2018-07-07T11:05:06.393Z,36.10
2018-07-07T11:07:34.104Z,36.10
2018-07-07T11:10:01.840Z,35.70
2018-07-07T11:12:29.550Z,35.20
2018-07-07T11:14:57.242Z,34.70
2018-07-07T11:17:24.934Z,35.00
2018-07-07T11:19:52.836Z,34.10
2018-07-07T11:22:20.590Z,33.20
2018-07-07T11:24:48.236Z,33.60
2018-07-07T11:27:15.902Z,33.90
2018-07-07T11:29:43.630Z,33.60
2018-07-07T11:32:11.252Z,33.10
2018-07-07T11:34:38.900Z,33.50
2018-07-07T11:37:06.567Z,33.70
2018-07-07T11:39:34.252Z,34.30
2018-07-07T11:42:01.997Z,33.80
2018-07-07T11:44:29.774Z,33.10
2018-07-07T11:46:57.504Z,33.40
2018-07-07T11:49:25.196Z,33.20
2018-07-07T11:51:52.992Z,32.50
2018-07-07T11:54:20.659Z,32.40
2018-07-07T11:56:48.506Z,31.60
2018-07-07T11:59:16.234Z,31.40
2018-07-07T12:01:43.949Z,32.00
2018-07-07T12:04:11.648Z,31.50
2018-07-07T12:06:39.424Z,31.50
2018-07-07T12:09:07.470Z,31.10
2018-07-07T12:11:35.462Z,31.20
2018-07-07T12:14:03.262Z,31.20
2018-07-07T12:16:30.940Z,30.70
2018-07-07T12:18:58.593Z,30.40
2018-07-07T12:21:26.339Z,30.40
2018-07-07T12:23:54.082Z,30.00
2018-07-07T12:26:21.732Z,30.10
2018-07-07T12:28:49.466Z,30.00
2018-07-07T12:31:17.310Z,30.20
2018-07-07T12:33:45.085Z,30.50
2018-07-07T12:36:12.848Z,29.90
2018-07-07T12:38:40.761Z,29.80
2018-07-07T12:41:08.465Z,29.70
2018-07-07T12:43:36.211Z,29.50
2018-07-07T12:46:03.949Z,29.80
2018-07-07T12:48:31.685Z,29.80
2018-07-07T12:50:59.417Z,29.80
2018-07-07T12:53:27.087Z,29.00
2018-07-07T12:55:54.789Z,29.10
2018-07-07T12:58:22.538Z,28.90
2018-07-07T13:00:50.194Z,29.40
2018-07-07T13:03:17.865Z,29.10
2018-07-07T13:05:45.560Z,28.90
2018-07-07T13:08:13.243Z,28.60
2018-07-07T13:10:40.913Z,28.00
2018-07-07T13:13:08.770Z,27.90
2018-07-07T13:15:36.549Z,28.10
2018-07-07T13:18:05.185Z,28.10
2018-07-07T13:20:32.856Z,28.20
2018-07-07T13:23:00.617Z,27.80
2018-07-07T13:25:28.321Z,28.00
2018-07-07T13:27:56.159Z,28.30
2018-07-07T13:30:23.918Z,28.30
2018-07-07T13:32:51.629Z,28.10
2018-07-07T13:35:19.382Z,27.90
2018-07-07T13:37:47.066Z,27.50
2018-07-07T13:40:14.771Z,27.00
2018-07-07T13:42:42.520Z,27.20
2018-07-07T13:45:10.245Z,27.00
2018-07-07T13:47:37.967Z,26.90
2018-07-07T13:50:05.724Z,26.50
2018-07-07T13:52:33.413Z,26.60
2018-07-07T13:55:01.187Z,26.50
2018-07-07T13:57:28.935Z,26.00
2018-07-07T13:59:56.683Z,26.70
2018-07-07T14:02:24.450Z,26.80
2018-07-07T14:04:52.161Z,26.80
2018-07-07T14:07:19.846Z,27.10
2018-07-07T14:09:47.573Z,27.20
2018-07-07T14:12:15.214Z,27.20
2018-07-07T14:14:42.817Z,27.70
2018-07-07T14:17:10.635Z,27.90
2018-07-07T14:19:38.569Z,27.50
2018-07-07T14:22:06.474Z,27.60
2018-07-07T14:24:34.163Z,27.80
2018-07-07T14:27:01.885Z,28.10
2018-07-07T14:29:29.813Z,28.40
2018-07-07T14:31:57.661Z,28.00
2018-07-07T14:34:25.391Z,28.10
2018-07-07T14:36:53.137Z,28.20
2018-07-07T14:39:20.815Z,28.40
2018-07-07T14:41:53.827Z,28.60
2018-07-07T14:44:21.497Z,28.60
2018-07-07T14:46:49.162Z,28.40
2018-07-07T14:49:16.819Z,28.30
2018-07-07T14:51:44.558Z,28.50
2018-07-07T14:54:12.269Z,28.20
2018-07-07T14:56:39.943Z,28.50
2018-07-07T14:59:07.595Z,29.00
2018-07-07T15:01:35.225Z,29.50
2018-07-07T15:04:03.331Z,29.50
2018-07-07T15:06:31.223Z,29.10
2018-07-07T15:11:26.424Z,29.00
2018-07-07T15:13:54.055Z,28.40
2018-07-07T15:16:21.785Z,27.60
2018-07-07T15:18:49.591Z,27.00
2018-07-07T15:21:17.313Z,27.00
2018-07-07T15:23:44.955Z,27.10
2018-07-07T15:26:12.685Z,27.00
2018-07-07T15:28:40.393Z,27.60
2018-07-07T15:31:08.111Z,26.90
2018-07-07T15:33:35.769Z,26.90
2018-07-07T15:36:03.442Z,27.10
2018-07-07T15:38:31.106Z,27.10
2018-07-07T15:40:58.734Z,27.30
2018-07-07T15:43:26.357Z,27.80
2018-07-07T15:45:54.048Z,27.80
2018-07-07T15:48:21.719Z,27.60
2018-07-07T15:50:49.532Z,27.40
2018-07-07T15:53:17.286Z,27.50
2018-07-07T15:55:45.023Z,27.50
2018-07-07T15:58:12.742Z,27.50
2018-07-07T16:00:40.452Z,27.40
2018-07-07T16:03:08.194Z,27.30
2018-07-07T16:05:35.921Z,27.70
2018-07-07T16:08:03.600Z,28.00
2018-07-07T16:10:31.304Z,27.60
2018-07-07T16:12:59.016Z,27.60
2018-07-07T16:15:26.732Z,27.70
2018-07-07T16:17:55.240Z,27.70
2018-07-07T16:20:22.966Z,28.30
2018-07-07T16:22:51.012Z,28.20
2018-07-07T16:25:18.768Z,28.30
2018-07-07T16:27:46.502Z,28.20
2018-07-07T16:30:14.134Z,28.00
2018-07-07T16:32:41.818Z,27.90
2018-07-07T16:35:09.447Z,27.90
2018-07-07T16:37:37.234Z,27.80
2018-07-07T16:40:04.922Z,28.60
2018-07-07T16:42:34.920Z,28.40
2018-07-07T16:45:02.694Z,27.90
2018-07-07T16:47:30.470Z,27.90
2018-07-07T16:49:58.224Z,28.30
2018-07-07T16:52:25.998Z,28.50
2018-07-07T16:54:53.773Z,28.40
2018-07-07T16:57:21.521Z,27.90
2018-07-07T16:59:49.220Z,27.80
2018-07-07T17:02:17.898Z,27.80
2018-07-07T17:04:45.648Z,27.80
2018-07-07T17:07:13.386Z,27.80
2018-07-07T17:09:41.065Z,27.60
2018-07-07T17:12:08.813Z,28.00
2018-07-07T17:14:36.480Z,27.80
2018-07-07T17:17:04.274Z,27.90
2018-07-07T17:19:32.002Z,27.60
2018-07-07T17:21:59.711Z,27.60
2018-07-07T17:24:28.540Z,27.80
2018-07-07T17:26:56.277Z,27.20
2018-07-07T17:29:23.983Z,26.70
2018-07-07T17:31:51.771Z,26.80
2018-07-07T17:34:19.517Z,27.10
2018-07-07T17:36:47.337Z,27.10
2018-07-07T17:39:15.149Z,27.20
2018-07-07T17:41:42.922Z,27.30
2018-07-07T17:44:10.709Z,27.70
2018-07-07T17:46:39.333Z,28.20
2018-07-07T17:49:07.026Z,28.50
2018-07-07T17:51:34.777Z,28.20
2018-07-07T17:54:02.503Z,28.20
2018-07-07T17:56:30.245Z,27.90
2018-07-07T17:58:58.341Z,28.00
2018-07-07T18:01:26.081Z,28.30
2018-07-07T18:03:53.873Z,28.60
2018-07-07T18:06:21.559Z,28.20
2018-07-07T18:08:49.149Z,28.10
2018-07-07T18:11:16.801Z,28.20
2018-07-07T18:13:44.514Z,28.10
2018-07-07T18:16:12.186Z,28.30
2018-07-07T18:18:39.895Z,28.40
2018-07-07T18:21:07.599Z,28.50
2018-07-07T18:23:35.247Z,28.70
2018-07-07T18:26:02.945Z,28.80
2018-07-07T18:30:58.224Z,29.40
2018-07-07T18:33:26.009Z,29.70
2018-07-07T18:35:53.673Z,30.00
2018-07-07T18:38:21.320Z,30.30
2018-07-07T18:40:48.959Z,30.50
2018-07-07T18:43:16.670Z,30.70
2018-07-07T18:45:44.307Z,31.10
2018-07-07T18:48:11.951Z,31.80
2018-07-07T18:50:39.629Z,32.10
2018-07-07T18:53:07.309Z,32.50
2018-07-07T18:55:35.027Z,32.80
2018-07-07T18:58:02.687Z,33.00
2018-07-07T19:00:30.401Z,33.30
2018-07-07T19:02:58.109Z,33.80
2018-07-07T19:05:25.796Z,34.30
2018-07-07T19:07:53.442Z,34.80
2018-07-07T19:10:21.089Z,35.10
2018-07-07T19:12:48.773Z,35.60
2018-07-07T19:15:20.096Z,35.90
2018-07-07T19:17:48.410Z,36.10
2018-07-07T19:20:21.669Z,36.40
2018-07-07T19:22:55.041Z,36.90
2018-07-07T19:25:28.471Z,37.20
2018-07-07T19:27:56.220Z,37.50
2018-07-07T19:30:24.009Z,38.00
2018-07-07T19:32:57.368Z,38.70
2018-07-07T19:37:32.269Z,39.30
2018-07-07T19:39:59.977Z,39.60
2018-07-07T19:42:27.693Z,39.60
2018-07-07T19:47:23.024Z,40.40
2018-07-07T19:49:50.735Z,40.70
2018-07-07T19:52:18.421Z,41.00
2018-07-07T19:54:46.120Z,41.40
2018-07-07T19:57:13.757Z,41.80
2018-07-07T19:59:41.422Z,42.00
2018-07-07T20:02:09.129Z,42.20
2018-07-07T20:04:36.797Z,42.50
2018-07-07T20:07:04.469Z,42.70
2018-07-07T20:09:32.207Z,42.90
2018-07-07T20:11:59.898Z,43.30
2018-07-07T20:14:27.599Z,43.70
2018-07-07T20:17:02.689Z,44.10
2018-07-07T20:19:41.737Z,44.40
2018-07-07T20:22:09.489Z,44.60
2018-07-07T20:24:38.106Z,44.80
2018-07-07T20:27:12.243Z,45.10
2018-07-07T20:29:39.950Z,45.20
2018-07-07T20:32:13.169Z,45.20
2018-07-07T20:34:40.865Z,45.50
2018-07-07T20:37:08.513Z,45.80
2018-07-07T20:39:36.253Z,46.10
2018-07-07T20:42:03.952Z,46.40
2018-07-07T20:44:31.618Z,46.60
2018-07-07T20:46:59.243Z,46.70
2018-07-07T20:49:26.911Z,46.90
2018-07-07T20:51:54.573Z,47.10
2018-07-07T20:54:22.261Z,47.40
2018-07-07T20:59:17.512Z,48.00
2018-07-07T21:01:45.172Z,48.10
2018-07-07T21:04:12.821Z,48.50
2018-07-07T21:06:40.449Z,48.70
2018-07-07T21:09:08.143Z,48.90
2018-07-07T21:11:35.802Z,48.90
2018-07-07T21:14:03.565Z,48.80
2018-07-07T21:16:31.295Z,49.30
2018-07-07T21:18:58.914Z,49.70
2018-07-07T21:21:26.587Z,49.90
2018-07-07T21:23:54.300Z,50.20
2018-07-07T21:26:22.044Z,50.30
2018-07-07T21:28:49.750Z,50.80
2018-07-07T21:31:17.452Z,51.30
2018-07-07T21:33:45.174Z,51.80
2018-07-07T21:36:12.820Z,52.10
2018-07-07T21:38:40.524Z,52.40
2018-07-07T21:41:14.910Z,52.60
2018-07-07T21:43:42.638Z,53.80
2018-07-07T21:46:10.278Z,53.40
2018-07-07T21:48:38.015Z,53.80
2018-07-07T21:51:05.792Z,54.30
2018-07-07T21:53:33.492Z,54.70
2018-07-07T21:56:01.122Z,54.70
2018-07-07T21:58:29.586Z,54.80
2018-07-07T22:03:41.770Z,54.90
2018-07-07T22:06:11.073Z,55.00
2018-07-07T22:08:38.733Z,55.40
2018-07-07T22:11:06.748Z,56.50
2018-07-07T22:13:34.682Z,55.90
2018-07-07T22:16:02.388Z,56.00
2018-07-07T22:18:30.098Z,56.20
2018-07-07T22:21:09.214Z,56.40
2018-07-07T22:23:37.012Z,56.60
2018-07-07T22:26:04.739Z,56.60
2018-07-07T22:28:32.471Z,56.60
2018-07-07T22:31:00.186Z,56.60
2018-07-07T22:33:28.058Z,56.70
2018-07-07T22:36:01.286Z,56.60
2018-07-07T22:38:34.458Z,56.70
2018-07-07T22:41:02.414Z,56.70
2018-07-07T22:43:30.471Z,56.60
2018-07-07T22:45:59.576Z,56.60
2018-07-07T22:48:28.031Z,57.40
2018-07-07T22:50:56.076Z,57.20
2018-07-07T22:53:23.829Z,57.60
2018-07-07T22:55:51.496Z,58.10
2018-07-07T22:58:19.204Z,58.20
2018-07-07T23:00:46.902Z,58.60
2018-07-07T23:03:15.416Z,58.80
2018-07-07T23:05:43.382Z,59.10
2018-07-07T23:08:11.531Z,59.20
2018-07-07T23:10:39.732Z,58.80
2018-07-07T23:13:07.865Z,58.80
2018-07-07T23:15:35.549Z,58.80
2018-07-07T23:18:03.256Z,58.90
2018-07-07T23:20:31.142Z,59.00
2018-07-07T23:22:58.807Z,59.90
2018-07-07T23:25:26.596Z,59.40
2018-07-07T23:27:54.252Z,59.40
2018-07-07T23:30:21.918Z,59.80
2018-07-07T23:32:50.374Z,60.00
2018-07-07T23:35:18.106Z,60.30
2018-07-07T23:37:45.779Z,60.40
2018-07-07T23:40:13.503Z,60.50
2018-07-07T23:42:41.426Z,60.50
2018-07-07T23:45:10.303Z,60.50
2018-07-07T23:47:38.038Z,60.70
2018-07-07T23:50:06.795Z,60.60
2018-07-07T23:52:34.493Z,60.90
2018-07-07T23:55:02.222Z,61.00
2018-07-07T23:57:29.906Z,61.40
2018-07-07T23:59:58.125Z,61.60
